createdAt,value
2018-07-14T00:01:39.028Z,22.51
2018-07-14T00:04:06.727Z,22.47
2018-07-14T00:06:34.422Z,22.47
2018-07-14T00:09:02.075Z,22.23
2018-07-14T00:11:29.709Z,22.14
2018-07-14T00:13:57.349Z,22.24
2018-07-14T00:16:25.440Z,22.08
2018-07-14T00:18:53.104Z,22.14
2018-07-14T00:21:20.730Z,22.19
2018-07-14T00:23:48.399Z,22.16
2018-07-14T00:26:19.082Z,22.16
2018-07-14T00:28:47.206Z,22.13
2018-07-14T00:31:14.954Z,22.13
2018-07-14T00:33:42.617Z,22.15
2018-07-14T00:36:10.206Z,22.08
2018-07-14T00:38:37.858Z,21.97
2018-07-14T00:41:05.471Z,21.70
2018-07-14T00:43:33.124Z,21.64
2018-07-14T00:46:00.729Z,21.61
2018-07-14T00:48:28.321Z,21.66
2018-07-14T00:50:55.983Z,21.53
2018-07-14T00:53:23.559Z,21.34
2018-07-14T00:55:51.216Z,21.08
2018-07-14T00:58:18.866Z,21.22
2018-07-14T01:00:46.541Z,21.05
2018-07-14T01:03:14.161Z,20.99
2018-07-14T01:05:41.751Z,20.71
2018-07-14T01:08:09.427Z,20.52
2018-07-14T01:10:37.152Z,20.48
2018-07-14T01:13:04.859Z,20.33
2018-07-14T01:15:32.494Z,20.39
2018-07-14T01:18:00.059Z,20.53
2018-07-14T01:20:27.715Z,20.38
2018-07-14T01:22:55.301Z,20.45
2018-07-14T01:25:22.863Z,20.61
2018-07-14T01:27:50.417Z,20.47
2018-07-14T01:30:18.105Z,20.43
2018-07-14T01:32:45.689Z,20.54
2018-07-14T01:35:13.294Z,20.47
2018-07-14T01:37:40.864Z,20.21
2018-07-14T01:40:08.494Z,20.25
2018-07-14T01:42:36.186Z,20.21
2018-07-14T01:45:03.894Z,20.51
2018-07-14T01:47:31.538Z,20.68
2018-07-14T01:49:59.086Z,20.50
2018-07-14T01:52:26.817Z,20.31
2018-07-14T01:54:54.513Z,20.49
2018-07-14T01:57:22.098Z,20.28
2018-07-14T01:59:49.709Z,20.26
2018-07-14T02:02:17.380Z,20.30
2018-07-14T02:04:45.083Z,20.32
2018-07-14T02:07:12.779Z,20.41
2018-07-14T02:09:40.396Z,20.35
2018-07-14T02:12:08.406Z,20.42
2018-07-14T02:14:35.989Z,20.30
2018-07-14T02:17:03.715Z,19.98
2018-07-14T02:19:31.282Z,19.93
2018-07-14T02:21:58.866Z,20.02
2018-07-14T02:24:26.438Z,19.90
2018-07-14T02:26:54.124Z,19.86
2018-07-14T02:29:21.691Z,19.81
2018-07-14T02:31:49.433Z,19.68
2018-07-14T02:34:17.017Z,19.69
2018-07-14T02:36:44.666Z,19.80
2018-07-14T02:39:12.330Z,19.78
2018-07-14T02:41:39.901Z,19.72
2018-07-14T02:44:07.580Z,19.96
2018-07-14T02:46:35.227Z,20.08
2018-07-14T02:49:02.862Z,20.20
2018-07-14T02:51:30.528Z,20.27
2018-07-14T02:53:58.139Z,20.29
2018-07-14T02:56:25.842Z,20.22
2018-07-14T02:58:53.583Z,20.09
2018-07-14T03:01:21.175Z,19.90
2018-07-14T03:03:48.854Z,19.77
2018-07-14T03:06:16.420Z,19.57
2018-07-14T03:08:44.031Z,19.55
2018-07-14T03:11:11.679Z,19.51
2018-07-14T03:13:39.259Z,19.33
2018-07-14T03:16:06.903Z,19.48
2018-07-14T03:18:34.499Z,19.15
2018-07-14T03:21:02.098Z,19.03
2018-07-14T03:23:29.724Z,19.06
2018-07-14T03:25:57.336Z,19.04
2018-07-14T03:28:24.945Z,19.28
2018-07-14T03:30:52.606Z,19.20
2018-07-14T03:33:20.239Z,19.36
2018-07-14T03:35:47.841Z,19.22
2018-07-14T03:38:15.419Z,19.34
2018-07-14T03:40:44.043Z,19.46
2018-07-14T03:43:11.662Z,19.25
2018-07-14T03:45:39.290Z,19.27
2018-07-14T03:48:07.017Z,19.31
2018-07-14T03:50:34.646Z,19.36
2018-07-14T03:53:02.254Z,19.44
2018-07-14T03:55:29.843Z,19.51
2018-07-14T03:57:57.488Z,19.50
2018-07-14T04:00:25.090Z,19.41
2018-07-14T04:02:52.720Z,19.46
2018-07-14T04:05:20.318Z,19.51
2018-07-14T04:07:47.901Z,19.49
2018-07-14T04:10:35.164Z,19.52
2018-07-14T04:13:02.883Z,19.59
2018-07-14T04:15:30.492Z,19.40
2018-07-14T04:18:03.662Z,19.52
2018-07-14T04:20:31.810Z,19.48
2018-07-14T04:22:59.897Z,19.59
2018-07-14T04:25:27.466Z,19.63
2018-07-14T04:27:55.211Z,19.65
2018-07-14T04:30:22.770Z,19.65
2018-07-14T04:32:50.513Z,19.74
2018-07-14T04:35:18.202Z,19.88
2018-07-14T04:37:45.770Z,19.86
2018-07-14T04:40:13.389Z,19.80
2018-07-14T04:42:41.050Z,19.80
2018-07-14T04:45:08.631Z,19.75
2018-07-14T04:47:36.283Z,19.83
2018-07-14T04:50:03.887Z,19.83
2018-07-14T04:52:31.499Z,20.03
2018-07-14T04:54:59.174Z,20.04
2018-07-14T04:57:26.757Z,20.21
2018-07-14T04:59:54.355Z,20.42
2018-07-14T05:02:22.050Z,20.50
2018-07-14T05:04:49.674Z,20.63
2018-07-14T05:07:17.261Z,20.69
2018-07-14T05:09:44.884Z,20.88
2018-07-14T05:12:12.518Z,21.03
2018-07-14T05:14:40.078Z,21.15
2018-07-14T05:17:07.752Z,20.93
2018-07-14T05:19:35.400Z,20.91
2018-07-14T05:22:03.287Z,21.19
2018-07-14T05:24:30.917Z,21.40
2018-07-14T05:26:58.473Z,21.66
2018-07-14T05:29:26.192Z,21.63
2018-07-14T05:31:53.798Z,21.80
2018-07-14T05:34:21.463Z,21.64
2018-07-14T05:36:49.126Z,21.89
2018-07-14T05:39:16.942Z,21.79
2018-07-14T05:41:44.507Z,21.66
2018-07-14T05:44:12.106Z,22.05
2018-07-14T05:46:39.806Z,22.33
2018-07-14T05:49:07.495Z,21.84
2018-07-14T05:51:35.085Z,22.33
2018-07-14T05:54:02.718Z,22.72
2018-07-14T05:56:30.295Z,22.50
2018-07-14T05:58:58.065Z,22.84
2018-07-14T06:01:25.739Z,23.08
2018-07-14T06:03:53.492Z,23.48
2018-07-14T06:06:21.106Z,23.62
2018-07-14T06:08:48.837Z,23.70
2018-07-14T06:11:16.674Z,23.86
2018-07-14T06:13:44.491Z,23.47
2018-07-14T06:16:12.148Z,24.14
2018-07-14T06:18:39.832Z,24.53
2018-07-14T06:21:07.481Z,24.87
2018-07-14T06:23:35.141Z,24.89
2018-07-14T06:26:02.716Z,24.99
2018-07-14T06:28:30.342Z,25.56
2018-07-14T06:30:58.044Z,25.69
2018-07-14T06:33:25.643Z,25.98
2018-07-14T06:35:53.383Z,26.29
2018-07-14T06:38:21.053Z,26.19
2018-07-14T06:40:48.687Z,26.44
2018-07-14T06:43:16.406Z,26.35
2018-07-14T06:45:44.006Z,26.61
2018-07-14T06:48:11.635Z,26.55
2018-07-14T06:50:39.314Z,26.71
2018-07-14T06:53:06.906Z,26.71
2018-07-14T06:55:34.563Z,27.03
2018-07-14T06:58:02.169Z,26.89
2018-07-14T07:00:29.872Z,26.99
2018-07-14T07:02:57.590Z,27.35
2018-07-14T07:05:25.205Z,27.51
2018-07-14T07:07:52.870Z,27.54
2018-07-14T07:10:37.230Z,27.59
2018-07-14T07:13:04.886Z,28.04
2018-07-14T07:15:32.586Z,27.68
2018-07-14T07:18:00.198Z,27.82
2018-07-14T07:20:27.899Z,27.82
2018-07-14T07:22:55.705Z,27.64
2018-07-14T07:25:24.175Z,27.80
2018-07-14T07:27:52.147Z,27.84
2018-07-14T07:30:19.811Z,28.21
2018-07-14T07:32:55.283Z,27.96
2018-07-14T07:35:22.967Z,28.05
2018-07-14T07:37:50.557Z,28.16
2018-07-14T07:40:18.183Z,28.16
2018-07-14T07:42:45.893Z,28.34
2018-07-14T07:45:13.519Z,28.56
2018-07-14T07:47:41.170Z,28.75
2018-07-14T07:50:08.794Z,28.97
2018-07-14T07:52:37.149Z,28.46
2018-07-14T07:55:04.830Z,28.64
2018-07-14T07:57:32.601Z,28.90
2018-07-14T08:00:00.211Z,28.51
2018-07-14T08:02:27.807Z,28.98
2018-07-14T08:04:55.426Z,28.91
2018-07-14T08:07:23.046Z,29.27
2018-07-14T08:09:50.658Z,29.13
2018-07-14T08:12:18.362Z,28.81
2018-07-14T08:14:45.975Z,29.10
2018-07-14T08:17:13.663Z,29.31
2018-07-14T08:19:41.313Z,29.76
2018-07-14T08:22:09.014Z,29.60
2018-07-14T08:24:36.741Z,29.62
2018-07-14T08:27:04.636Z,29.62
2018-07-14T08:29:32.266Z,29.86
2018-07-14T08:31:59.905Z,29.93
2018-07-14T08:34:27.456Z,29.84
2018-07-14T08:36:55.074Z,30.08
2018-07-14T08:39:22.751Z,30.29
2018-07-14T08:41:50.374Z,30.54
2018-07-14T08:44:18.069Z,30.69
2018-07-14T08:46:45.662Z,30.44
2018-07-14T08:49:20.222Z,30.37
2018-07-14T08:51:47.870Z,30.16
2018-07-14T08:54:15.635Z,30.52
2018-07-14T08:56:43.311Z,30.59
2018-07-14T08:59:10.902Z,30.91
2018-07-14T09:01:38.526Z,31.19
2018-07-14T09:04:06.214Z,31.35
2018-07-14T09:06:33.790Z,31.32
2018-07-14T09:09:01.451Z,31.43
2018-07-14T09:11:29.090Z,31.39
2018-07-14T09:13:56.751Z,31.43
2018-07-14T09:16:24.448Z,31.69
2018-07-14T09:18:51.993Z,31.81
2018-07-14T09:21:19.715Z,31.93
2018-07-14T09:23:47.389Z,31.67
2018-07-14T09:26:15.213Z,31.72
2018-07-14T09:28:42.817Z,31.59
2018-07-14T09:31:10.454Z,31.90
2018-07-14T09:33:38.098Z,32.03
2018-07-14T09:36:05.805Z,31.81
2018-07-14T09:38:33.372Z,32.03
2018-07-14T09:41:01.067Z,31.93
2018-07-14T09:43:28.678Z,32.22
2018-07-14T09:45:56.365Z,32.38
2018-07-14T09:48:23.965Z,32.43
2018-07-14T09:50:51.675Z,32.54
2018-07-14T09:53:19.444Z,32.70
2018-07-14T09:55:47.251Z,32.48
2018-07-14T09:58:17.019Z,32.39
2018-07-14T10:00:50.478Z,32.43
2018-07-14T10:03:18.225Z,32.39
2018-07-14T10:05:45.843Z,32.20
2018-07-14T10:08:13.504Z,32.47
2018-07-14T10:10:41.137Z,32.41
2018-07-14T10:13:08.859Z,32.63
2018-07-14T10:15:36.530Z,32.66
2018-07-14T10:18:04.170Z,32.74
2018-07-14T10:20:31.793Z,33.19
2018-07-14T10:22:59.487Z,32.71
2018-07-14T10:25:27.090Z,32.83
2018-07-14T10:27:54.698Z,32.78
2018-07-14T10:30:22.351Z,32.69
2018-07-14T10:32:50.068Z,32.53
2018-07-14T10:35:17.815Z,32.45
2018-07-14T10:37:45.461Z,32.57
2018-07-14T10:40:13.159Z,32.55
2018-07-14T10:42:40.870Z,32.67
2018-07-14T10:45:08.657Z,32.79
2018-07-14T10:47:36.370Z,33.02
2018-07-14T10:50:03.974Z,32.98
2018-07-14T10:52:31.694Z,32.83
2018-07-14T10:54:59.577Z,32.93
2018-07-14T10:57:27.246Z,32.64
2018-07-14T10:59:54.898Z,32.04
2018-07-14T11:02:22.494Z,32.09
2018-07-14T11:04:50.183Z,32.25
2018-07-14T11:07:17.802Z,32.46
2018-07-14T11:09:45.534Z,32.46
2018-07-14T11:12:13.287Z,32.54
2018-07-14T11:14:40.842Z,32.78
2018-07-14T11:17:08.575Z,32.94
2018-07-14T11:19:36.268Z,32.98
2018-07-14T11:22:03.945Z,33.09
2018-07-14T11:24:31.698Z,33.25
2018-07-14T11:26:59.321Z,33.24
2018-07-14T11:29:27.013Z,33.39
2018-07-14T11:31:54.602Z,33.36
2018-07-14T11:34:22.259Z,33.68
2018-07-14T11:36:50.278Z,33.62
2018-07-14T11:39:17.892Z,33.62
2018-07-14T11:41:45.590Z,33.43
2018-07-14T11:44:13.398Z,33.36
2018-07-14T11:46:40.990Z,33.49
2018-07-14T11:49:08.708Z,33.19
2018-07-14T11:51:36.358Z,33.05
2018-07-14T11:54:04.105Z,32.67
2018-07-14T11:56:32.330Z,32.15
2018-07-14T11:58:59.940Z,31.91
2018-07-14T12:01:27.930Z,32.06
2018-07-14T12:03:55.610Z,32.14
2018-07-14T12:06:23.220Z,32.37
2018-07-14T12:08:50.826Z,33.11
2018-07-14T12:11:18.490Z,33.68
2018-07-14T12:13:46.113Z,34.16
2018-07-14T12:16:13.897Z,34.74
2018-07-14T12:18:41.505Z,35.13
2018-07-14T12:21:09.141Z,35.66
2018-07-14T12:23:36.735Z,36.16
2018-07-14T12:26:04.573Z,36.41
2018-07-14T12:31:06.719Z,36.73
2018-07-14T12:33:34.437Z,36.76
2018-07-14T12:36:02.131Z,36.92
2018-07-14T12:38:29.758Z,37.01
2018-07-14T12:40:57.414Z,36.96
2018-07-14T12:43:25.020Z,37.56
2018-07-14T12:45:52.590Z,38.30
2018-07-14T12:48:20.274Z,37.86
2018-07-14T12:50:47.897Z,37.60
2018-07-14T12:53:15.625Z,37.47
2018-07-14T12:55:43.267Z,36.03
2018-07-14T12:58:10.934Z,37.61
2018-07-14T13:00:38.573Z,37.92
2018-07-14T13:03:06.199Z,37.87
2018-07-14T13:05:33.842Z,37.65
2018-07-14T13:08:01.465Z,37.70
2018-07-14T13:10:35.790Z,37.90
2018-07-14T13:13:03.487Z,37.59
2018-07-14T13:15:31.078Z,37.19
2018-07-14T13:17:58.810Z,37.71
2018-07-14T13:20:26.425Z,36.96
2018-07-14T13:22:54.179Z,36.75
2018-07-14T13:25:21.877Z,36.59
2018-07-14T13:27:49.586Z,36.57
2018-07-14T13:30:17.394Z,36.34
2018-07-14T13:32:44.978Z,36.46
2018-07-14T13:35:12.565Z,36.61
2018-07-14T13:37:40.179Z,36.34
2018-07-14T13:40:14.654Z,36.44
2018-07-14T13:42:42.281Z,36.21
2018-07-14T13:45:13.058Z,36.27
2018-07-14T13:47:40.852Z,35.93
2018-07-14T13:50:08.562Z,35.41
2018-07-14T13:52:36.195Z,34.97
2018-07-14T13:55:03.914Z,35.07
2018-07-14T13:57:31.653Z,35.19
2018-07-14T13:59:59.282Z,35.37
2018-07-14T14:02:26.891Z,35.55
2018-07-14T14:04:54.662Z,35.58
2018-07-14T14:07:22.377Z,35.57
2018-07-14T14:09:50.056Z,35.43
2018-07-14T14:12:17.756Z,35.46
2018-07-14T14:14:46.326Z,35.49
2018-07-14T14:17:13.982Z,35.57
2018-07-14T14:19:41.585Z,35.58
2018-07-14T14:22:09.302Z,35.39
2018-07-14T14:24:36.934Z,35.28
2018-07-14T14:27:04.704Z,34.85
2018-07-14T14:29:32.373Z,34.67
2018-07-14T14:32:00.098Z,34.77
2018-07-14T14:34:27.707Z,34.71
2018-07-14T14:36:55.331Z,34.53
2018-07-14T14:39:22.938Z,34.46
2018-07-14T14:41:50.610Z,34.47
2018-07-14T14:44:18.272Z,34.47
2018-07-14T14:46:45.872Z,34.57
2018-07-14T14:49:13.561Z,34.63
2018-07-14T14:51:41.215Z,34.93
2018-07-14T14:54:08.818Z,35.22
2018-07-14T14:56:36.435Z,35.13
2018-07-14T14:59:04.046Z,34.99
2018-07-14T15:01:31.679Z,35.08
2018-07-14T15:03:59.294Z,35.16
2018-07-14T15:06:27.010Z,35.06
2018-07-14T15:08:54.610Z,35.11
2018-07-14T15:11:22.345Z,34.91
2018-07-14T15:13:50.026Z,34.92
2018-07-14T15:16:17.639Z,34.94
2018-07-14T15:18:45.246Z,35.05
2018-07-14T15:21:12.881Z,34.90
2018-07-14T15:23:40.507Z,34.90
2018-07-14T15:26:08.187Z,34.80
2018-07-14T15:28:35.889Z,34.96
2018-07-14T15:31:03.515Z,34.48
2018-07-14T15:33:31.177Z,34.54
2018-07-14T15:35:58.808Z,34.60
2018-07-14T15:38:26.404Z,34.68
2018-07-14T15:40:54.116Z,34.74
2018-07-14T15:43:21.755Z,34.77
2018-07-14T15:45:49.385Z,34.71
2018-07-14T15:48:16.991Z,34.30
2018-07-14T15:50:44.563Z,34.15
2018-07-14T15:53:12.257Z,34.15
2018-07-14T15:55:39.834Z,34.07
2018-07-14T15:58:07.529Z,33.85
2018-07-14T16:00:35.121Z,33.86
2018-07-14T16:03:02.724Z,33.91
2018-07-14T16:05:30.398Z,33.85
2018-07-14T16:07:58.067Z,33.82
2018-07-14T16:10:35.683Z,33.93
2018-07-14T16:13:03.594Z,34.05
2018-07-14T16:15:31.231Z,33.93
2018-07-14T16:17:58.954Z,33.98
2018-07-14T16:20:26.642Z,33.99
2018-07-14T16:22:54.223Z,33.91
2018-07-14T16:25:22.058Z,33.91
2018-07-14T16:27:49.694Z,33.78
2018-07-14T16:30:17.381Z,33.56
2018-07-14T16:32:45.098Z,33.45
2018-07-14T16:35:12.832Z,33.37
2018-07-14T16:37:40.768Z,33.21
2018-07-14T16:40:08.435Z,33.01
2018-07-14T16:42:36.035Z,32.54
2018-07-14T16:45:04.638Z,32.74
2018-07-14T16:47:32.246Z,32.63
2018-07-14T16:49:59.949Z,32.45
2018-07-14T16:52:27.498Z,32.26
2018-07-14T16:54:55.109Z,32.06
2018-07-14T16:57:23.023Z,32.12
2018-07-14T16:59:50.715Z,32.20
2018-07-14T17:02:18.300Z,32.02
2018-07-14T17:04:45.954Z,31.87
2018-07-14T17:07:13.766Z,31.94
2018-07-14T17:09:41.413Z,32.01
2018-07-14T17:12:09.180Z,31.91
2018-07-14T17:14:36.767Z,31.70
2018-07-14T17:17:04.642Z,31.70
2018-07-14T17:19:32.365Z,31.81
2018-07-14T17:22:00.318Z,31.50
2018-07-14T17:24:28.022Z,31.45
2018-07-14T17:26:56.027Z,31.34
2018-07-14T17:29:24.698Z,31.37
2018-07-14T17:31:52.603Z,31.26
2018-07-14T17:34:20.561Z,31.24
2018-07-14T17:36:48.325Z,31.14
2018-07-14T17:39:15.923Z,31.05
2018-07-14T17:41:43.889Z,31.11
2018-07-14T17:44:12.303Z,30.86
2018-07-14T17:46:41.266Z,30.98
2018-07-14T17:49:08.927Z,30.88
2018-07-14T17:51:36.650Z,30.86
2018-07-14T17:54:05.599Z,30.84
2018-07-14T17:56:33.366Z,30.83
2018-07-14T17:59:02.279Z,30.89
2018-07-14T18:01:33.878Z,30.84
2018-07-14T18:04:01.753Z,30.69
2018-07-14T18:06:30.107Z,30.64
2018-07-14T18:08:57.894Z,30.58
2018-07-14T18:11:26.602Z,30.51
2018-07-14T18:13:54.736Z,30.35
2018-07-14T18:16:23.026Z,30.41
2018-07-14T18:18:50.851Z,30.25
2018-07-14T18:21:18.896Z,30.23
2018-07-14T18:23:46.707Z,30.23
2018-07-14T18:26:14.768Z,30.24
2018-07-14T18:28:44.703Z,30.19
2018-07-14T18:31:12.790Z,30.13
2018-07-14T18:33:41.133Z,30.01
2018-07-14T18:36:09.641Z,29.97
2018-07-14T18:38:37.629Z,29.90
2018-07-14T18:41:05.458Z,29.86
2018-07-14T18:43:33.090Z,29.81
2018-07-14T18:46:00.882Z,29.75
2018-07-14T18:48:28.630Z,29.69
2018-07-14T18:50:56.769Z,29.63
2018-07-14T18:53:25.008Z,29.61
2018-07-14T18:55:52.607Z,29.52
2018-07-14T18:58:20.352Z,29.40
2018-07-14T19:00:47.990Z,29.37
2018-07-14T19:03:15.847Z,29.31
2018-07-14T19:05:43.624Z,29.24
2018-07-14T19:08:11.246Z,29.14
2018-07-14T19:10:39.442Z,29.07
2018-07-14T19:13:07.475Z,29.02
2018-07-14T19:15:35.319Z,28.96
2018-07-14T19:18:03.686Z,28.85
2018-07-14T19:20:31.385Z,28.76
2018-07-14T19:22:58.972Z,28.64
2018-07-14T19:25:27.181Z,28.54
2018-07-14T19:27:54.854Z,28.47
2018-07-14T19:30:23.010Z,28.37
2018-07-14T19:32:50.647Z,28.29
2018-07-14T19:35:18.378Z,28.25
2018-07-14T19:37:46.058Z,28.18
2018-07-14T19:40:13.698Z,28.11
2018-07-14T19:42:41.320Z,27.99
2018-07-14T19:45:09.214Z,27.90
2018-07-14T19:47:36.810Z,27.81
2018-07-14T19:50:04.530Z,27.73
2018-07-14T19:52:32.269Z,27.65
2018-07-14T19:54:59.923Z,27.59
2018-07-14T19:57:27.659Z,27.49
2018-07-14T19:59:55.274Z,27.42
2018-07-14T20:02:22.937Z,27.33
2018-07-14T20:04:50.595Z,27.22
2018-07-14T20:07:18.299Z,27.15
2018-07-14T20:09:45.917Z,27.07
2018-07-14T20:12:13.528Z,26.99
2018-07-14T20:14:41.154Z,26.91
2018-07-14T20:17:08.811Z,26.82
2018-07-14T20:19:36.428Z,26.76
2018-07-14T20:22:04.183Z,26.71
2018-07-14T20:24:31.892Z,26.61
2018-07-14T20:26:59.562Z,26.58
2018-07-14T20:29:27.158Z,26.55
2018-07-14T20:31:54.762Z,26.48
2018-07-14T20:34:22.523Z,26.40
2018-07-14T20:36:50.272Z,26.22
2018-07-14T20:39:17.849Z,26.20
2018-07-14T20:41:45.683Z,26.23
2018-07-14T20:44:13.255Z,26.19
2018-07-14T20:46:41.575Z,26.14
2018-07-14T20:49:09.231Z,26.10
2018-07-14T20:51:36.924Z,26.04
2018-07-14T20:54:05.313Z,26.04
2018-07-14T20:56:32.938Z,25.94
2018-07-14T20:59:00.710Z,25.90
2018-07-14T21:01:28.357Z,25.81
2018-07-14T21:03:55.979Z,25.78
2018-07-14T21:06:23.738Z,25.75
2018-07-14T21:08:51.382Z,25.72
2018-07-14T21:11:19.026Z,25.63
2018-07-14T21:13:46.704Z,25.65
2018-07-14T21:16:14.340Z,25.59
2018-07-14T21:18:42.145Z,25.55
2018-07-14T21:21:09.831Z,25.46
2018-07-14T21:23:37.334Z,25.31
2018-07-14T21:26:05.015Z,25.25
2018-07-14T21:28:32.629Z,25.25
2018-07-14T21:31:00.470Z,25.18
2018-07-14T21:33:28.178Z,25.13
2018-07-14T21:35:55.779Z,25.04
2018-07-14T21:38:23.447Z,25.01
2018-07-14T21:40:51.050Z,25.00
2018-07-14T21:43:18.649Z,24.99
2018-07-14T21:45:46.275Z,24.90
2018-07-14T21:48:13.846Z,24.41
2018-07-14T21:50:41.536Z,24.41
2018-07-14T21:53:09.184Z,24.51
2018-07-14T21:55:36.778Z,24.59
2018-07-14T21:58:04.418Z,24.50
2018-07-14T22:00:37.930Z,24.34
2018-07-14T22:03:06.486Z,24.11
2018-07-14T22:05:34.160Z,24.28
2018-07-14T22:08:01.799Z,24.15
2018-07-14T22:10:36.331Z,23.90
2018-07-14T22:13:03.958Z,24.14
2018-07-14T22:15:31.564Z,24.22
2018-07-14T22:17:59.202Z,23.98
2018-07-14T22:20:26.842Z,23.99
2018-07-14T22:22:54.454Z,24.19
2018-07-14T22:25:22.258Z,24.28
2018-07-14T22:27:49.877Z,24.33
2018-07-14T22:30:17.530Z,24.17
2018-07-14T22:32:45.195Z,24.06
2018-07-14T22:35:12.889Z,24.11
2018-07-14T22:37:40.526Z,23.92
2018-07-14T22:40:08.185Z,23.67
2018-07-14T22:42:35.862Z,23.30
2018-07-14T22:45:03.761Z,23.33
2018-07-14T22:47:31.370Z,23.23
2018-07-14T22:49:59.082Z,23.42
2018-07-14T22:52:26.705Z,23.62
2018-07-14T22:54:54.360Z,23.54
2018-07-14T22:57:22.023Z,23.62
2018-07-14T22:59:49.606Z,23.69
2018-07-14T23:02:17.233Z,23.76
2018-07-14T23:04:44.794Z,23.79
2018-07-14T23:07:12.824Z,23.77
2018-07-14T23:09:41.789Z,23.74
2018-07-14T23:12:09.421Z,23.52
2018-07-14T23:14:36.995Z,23.64
2018-07-14T23:17:04.663Z,23.65
2018-07-14T23:19:32.212Z,23.35
2018-07-14T23:21:59.877Z,23.35
2018-07-14T23:24:27.770Z,23.32
2018-07-14T23:26:55.358Z,23.36
2018-07-14T23:29:23.077Z,23.32
2018-07-14T23:31:50.657Z,23.32
2018-07-14T23:34:18.256Z,23.17
2018-07-14T23:36:45.926Z,23.04
2018-07-14T23:39:13.590Z,23.19
2018-07-14T23:41:41.250Z,23.25
2018-07-14T23:44:08.827Z,23.27
2018-07-14T23:46:36.474Z,22.97
2018-07-14T23:49:04.216Z,23.02
2018-07-14T23:51:31.794Z,23.08
2018-07-14T23:53:59.533Z,23.18
2018-07-14T23:56:27.098Z,23.04
2018-07-14T23:58:54.682Z,23.07
